Time,TemperatureF,DewpointF,PressureIn,WindDirection,WindDirectionDegrees,WindSpeedMPH,WindSpeedGustMPH,Humidity,HourlyPrecipIn,Conditions,Clouds,dailyrainin,SoftwareType,DateUTC
2016-08-27 00:04:00,55.9,0.1,30.11,NW,315,0.0,0.0,10,0.00,,,0.00,meteobridge,2016-08-27 06:04:00,
2016-08-27 00:10:00,55.9,0.1,30.11,North,0,0.0,0.0,10,0.00,,,0.00,meteobridge,2016-08-27 06:10:00,
2016-08-27 00:15:00,55.9,0.1,30.10,East,90,0.0,0.0,10,0.00,,,0.00,meteobridge,2016-08-27 06:15:00,
2016-08-27 00:20:00,55.9,0.1,30.10,East,90,0.0,0.0,10,0.00,,,0.00,meteobridge,2016-08-27 06:20:00,
2016-08-27 00:25:00,55.8,0.0,30.10,NW,315,0.0,0.0,10,0.00,,,0.00,meteobridge,2016-08-27 06:25:00,
2016-08-27 00:30:00,55.6,1.9,30.10,East,90,0.0,0.0,11,0.00,,,0.00,meteobridge,2016-08-27 06:30:00,
2016-08-27 00:35:00,55.6,1.9,30.11,West,270,0.0,0.0,11,0.00,,,0.00,meteobridge,2016-08-27 06:35:00,
2016-08-27 00:40:00,55.4,1.8,30.11,West,270,0.0,0.0,11,0.00,,,0.00,meteobridge,2016-08-27 06:40:00,
2016-08-27 00:46:00,55.4,1.8,30.11,North,0,0.0,0.0,11,0.00,,,0.00,meteobridge,2016-08-27 06:46:00,
2016-08-27 00:51:00,55.6,3.7,30.11,North,0,0.0,0.0,12,0.00,,,0.00,meteobridge,2016-08-27 06:51:00,
2016-08-27 00:56:00,55.4,3.6,30.10,North,0,0.0,0.0,12,0.00,,,0.00,meteobridge,2016-08-27 06:56:00,
2016-08-27 01:01:00,55.4,3.6,30.10,NW,315,0.0,0.0,12,0.00,,,0.00,meteobridge,2016-08-27 07:01:00,
2016-08-27 01:06:00,55.4,3.6,30.10,NW,315,0.0,0.0,12,0.00,,,0.00,meteobridge,2016-08-27 07:06:00,
2016-08-27 01:11:00,55.2,3.4,30.10,North,0,0.0,0.0,12,0.00,,,0.00,meteobridge,2016-08-27 07:11:00,
2016-08-27 01:17:00,55.0,3.4,30.10,NE,45,0.0,0.0,12,0.00,,,0.00,meteobridge,2016-08-27 07:17:00,
2016-08-27 01:22:00,55.0,3.4,30.10,NE,45,0.0,0.0,12,0.00,,,0.00,meteobridge,2016-08-27 07:22:00,
2016-08-27 01:27:00,54.9,3.2,30.10,NE,45,0.0,0.0,12,0.00,,,0.00,meteobridge,2016-08-27 07:27:00,
2016-08-27 01:32:00,54.7,4.8,30.10,East,90,0.0,0.0,13,0.00,,,0.00,meteobridge,2016-08-27 07:32:00,
2016-08-27 01:37:00,54.5,4.6,30.10,North,0,0.0,0.0,13,0.00,,,0.00,meteobridge,2016-08-27 07:37:00,
2016-08-27 01:42:00,54.3,4.5,30.10,NE,45,0.0,0.0,13,0.00,,,0.00,meteobridge,2016-08-27 07:42:00,
2016-08-27 01:53:00,54.1,5.9,30.10,East,90,0.0,0.0,14,0.00,,,0.00,meteobridge,2016-08-27 07:53:00,
2016-08-27 01:58:00,54.0,5.9,30.09,NW,315,0.0,0.7,14,0.00,,,0.00,meteobridge,2016-08-27 07:58:00,
2016-08-27 02:03:00,54.0,5.9,30.09,West,270,0.0,0.0,14,0.00,,,0.00,meteobridge,2016-08-27 08:03:00,
2016-08-27 02:08:00,53.4,5.4,30.10,NE,45,0.0,0.0,14,0.00,,,0.00,meteobridge,2016-08-27 08:08:00,
2016-08-27 02:13:00,53.2,5.2,30.09,WNW,293,0.0,0.0,14,0.00,,,0.00,meteobridge,2016-08-27 08:13:00,
2016-08-27 02:19:00,53.1,6.6,30.09,SW,225,0.0,0.0,15,0.00,,,0.00,meteobridge,2016-08-27 08:19:00,
2016-08-27 02:24:00,53.1,6.6,30.09,SE,135,0.0,0.0,15,0.00,,,0.00,meteobridge,2016-08-27 08:24:00,
2016-08-27 02:29:00,52.9,6.4,30.09,NE,45,0.0,0.0,15,0.00,,,0.00,meteobridge,2016-08-27 08:29:00,
2016-08-27 02:34:00,52.9,6.4,30.09,NNE,23,3.1,3.1,15,0.00,,,0.00,meteobridge,2016-08-27 08:34:00,
2016-08-27 02:39:00,52.7,6.3,30.09,South,180,0.0,0.0,15,0.00,,,0.00,meteobridge,2016-08-27 08:39:00,
2016-08-27 02:44:00,52.7,7.7,30.08,East,90,2.2,2.2,16,0.00,,,0.00,meteobridge,2016-08-27 08:44:00,
2016-08-27 02:50:00,52.7,7.7,30.08,East,90,0.0,3.1,16,0.00,,,0.00,meteobridge,2016-08-27 08:50:00,
2016-08-27 02:55:00,52.7,7.7,30.08,East,90,0.0,0.0,16,0.00,,,0.00,meteobridge,2016-08-27 08:55:00,
2016-08-27 03:00:00,52.5,9.0,30.08,NE,45,0.0,0.7,17,0.00,,,0.00,meteobridge,2016-08-27 09:00:00,
2016-08-27 03:05:00,52.5,9.0,30.08,NE,45,0.0,0.0,17,0.00,,,0.00,meteobridge,2016-08-27 09:05:00,
2016-08-27 03:10:00,52.3,8.8,30.08,East,90,2.2,3.8,17,0.00,,,0.00,meteobridge,2016-08-27 09:10:00,
2016-08-27 03:15:00,52.3,8.8,30.08,North,0,0.0,0.0,17,0.00,,,0.00,meteobridge,2016-08-27 09:15:00,
2016-08-27 03:21:00,52.3,8.8,30.08,North,0,0.0,0.0,17,0.00,,,0.00,meteobridge,2016-08-27 09:21:00,
2016-08-27 03:26:00,52.3,8.8,30.08,SW,225,0.0,0.0,17,0.00,,,0.00,meteobridge,2016-08-27 09:26:00,
2016-08-27 03:31:00,52.2,8.6,30.09,NW,315,0.0,0.0,17,0.00,,,0.00,meteobridge,2016-08-27 09:31:00,
2016-08-27 03:36:00,52.2,9.9,30.08,SE,135,0.0,0.0,18,0.00,,,0.00,meteobridge,2016-08-27 09:36:00,
2016-08-27 03:46:00,52.2,9.9,30.08,SE,135,0.0,0.0,18,0.00,,,0.00,meteobridge,2016-08-27 09:46:00,
2016-08-27 03:52:00,52.2,9.9,30.09,South,180,0.0,0.0,18,0.00,,,0.00,meteobridge,2016-08-27 09:52:00,
2016-08-27 03:57:00,52.0,9.7,30.09,NW,315,0.0,0.0,18,0.00,,,0.00,meteobridge,2016-08-27 09:57:00,
2016-08-27 04:02:00,52.0,9.7,30.08,NW,315,0.0,0.0,18,0.00,,,0.00,meteobridge,2016-08-27 10:02:00,
2016-08-27 04:07:00,52.0,9.7,30.09,NW,315,0.0,0.0,18,0.00,,,0.00,meteobridge,2016-08-27 10:07:00,
2016-08-27 04:12:00,51.8,10.8,30.09,SSW,203,0.0,0.0,19,0.00,,,0.00,meteobridge,2016-08-27 10:12:00,
2016-08-27 04:17:00,51.8,10.8,30.09,SW,225,0.0,0.0,19,0.00,,,0.00,meteobridge,2016-08-27 10:17:00,
2016-08-27 04:22:00,51.6,10.8,30.09,NW,315,0.0,0.0,19,0.00,,,0.00,meteobridge,2016-08-27 10:22:00,
2016-08-27 04:28:00,51.3,10.4,30.09,SW,225,0.0,0.0,19,0.00,,,0.00,meteobridge,2016-08-27 10:28:00,
2016-08-27 04:33:00,51.3,10.4,30.09,SW,225,0.0,0.0,19,0.00,,,0.00,meteobridge,2016-08-27 10:33:00,
2016-08-27 04:38:00,51.1,10.2,30.09,NW,315,0.0,0.0,19,0.00,,,0.00,meteobridge,2016-08-27 10:38:00,
2016-08-27 04:43:00,50.9,10.0,30.09,East,90,0.0,0.0,19,0.00,,,0.00,meteobridge,2016-08-27 10:43:00,
2016-08-27 04:48:00,50.9,10.0,30.09,NE,45,0.0,0.0,19,0.00,,,0.00,meteobridge,2016-08-27 10:48:00,
2016-08-27 04:53:00,50.7,9.9,30.09,NE,45,0.0,0.0,19,0.00,,,0.00,meteobridge,2016-08-27 10:53:00,
2016-08-27 04:58:00,50.9,10.0,30.09,NE,45,0.0,0.0,19,0.00,,,0.00,meteobridge,2016-08-27 10:58:00,
2016-08-27 05:04:00,50.7,9.9,30.09,NE,45,0.0,0.0,19,0.00,,,0.00,meteobridge,2016-08-27 11:04:00,
2016-08-27 05:09:00,51.1,10.2,30.09,NW,315,0.0,0.0,19,0.00,,,0.00,meteobridge,2016-08-27 11:09:00,
2016-08-27 05:14:00,51.1,11.3,30.09,North,0,0.0,0.0,20,0.00,,,0.00,meteobridge,2016-08-27 11:14:00,
2016-08-27 05:19:00,51.1,10.2,30.10,NW,315,0.0,0.0,19,0.00,,,0.00,meteobridge,2016-08-27 11:19:00,
2016-08-27 05:24:00,51.3,11.5,30.09,North,0,0.0,0.0,20,0.00,,,0.00,meteobridge,2016-08-27 11:24:00,
2016-08-27 05:29:00,51.3,11.5,30.09,SE,135,0.0,0.0,20,0.00,,,0.00,meteobridge,2016-08-27 11:29:00,
2016-08-27 05:35:00,51.1,10.2,30.09,SE,135,0.0,0.0,19,0.00,,,0.00,meteobridge,2016-08-27 11:35:00,
2016-08-27 05:45:00,50.9,10.0,30.10,SE,135,0.0,0.0,19,0.00,,,0.00,meteobridge,2016-08-27 11:45:00,
2016-08-27 05:50:00,50.7,9.9,30.10,SE,135,0.0,0.0,19,0.00,,,0.00,meteobridge,2016-08-27 11:50:00,
2016-08-27 06:00:00,50.7,11.1,30.10,SW,225,0.0,0.0,20,0.00,,,0.00,meteobridge,2016-08-27 12:00:00,
2016-08-27 06:06:00,50.7,11.1,30.11,SW,225,0.0,0.0,20,0.00,,,0.00,meteobridge,2016-08-27 12:06:00,
2016-08-27 06:11:00,50.4,10.8,30.11,NW,315,0.0,2.2,20,0.00,,,0.00,meteobridge,2016-08-27 12:11:00,
2016-08-27 06:16:00,50.2,10.6,30.11,SW,225,0.0,0.0,20,0.00,,,0.00,meteobridge,2016-08-27 12:16:00,
2016-08-27 06:21:00,50.0,10.4,30.11,SW,225,0.0,0.0,20,0.00,,,0.00,meteobridge,2016-08-27 12:21:00,
2016-08-27 06:26:00,49.6,10.2,30.11,SW,225,0.0,0.0,20,0.00,,,0.00,meteobridge,2016-08-27 12:26:00,
2016-08-27 06:31:00,49.5,10.0,30.11,SW,225,0.0,0.0,20,0.00,,,0.00,meteobridge,2016-08-27 12:31:00,
2016-08-27 06:37:00,49.5,10.0,30.11,NE,45,1.6,1.6,20,0.00,,,0.00,meteobridge,2016-08-27 12:37:00,
2016-08-27 06:42:00,49.5,10.0,30.12,SW,225,0.0,0.0,20,0.00,,,0.00,meteobridge,2016-08-27 12:42:00,
2016-08-27 06:47:00,49.6,10.2,30.12,SW,225,0.0,0.0,20,0.00,,,0.00,meteobridge,2016-08-27 12:47:00,
2016-08-27 06:52:00,49.6,10.2,30.12,SW,225,0.0,0.0,20,0.00,,,0.00,meteobridge,2016-08-27 12:52:00,
2016-08-27 06:57:00,49.8,10.4,30.12,SW,225,0.0,0.0,20,0.00,,,0.00,meteobridge,2016-08-27 12:57:00,
2016-08-27 07:02:00,50.0,11.7,30.12,SW,225,0.0,0.0,21,0.00,,,0.00,meteobridge,2016-08-27 13:02:00,
2016-08-27 07:08:00,50.2,11.7,30.12,SW,225,0.0,0.0,21,0.00,,,0.00,meteobridge,2016-08-27 13:08:00,
2016-08-27 07:13:00,50.7,12.2,30.12,SW,225,0.0,0.0,21,0.00,,,0.00,meteobridge,2016-08-27 13:13:00,
2016-08-27 07:18:00,51.3,12.6,30.12,SW,225,0.7,0.7,21,0.00,,,0.00,meteobridge,2016-08-27 13:18:00,
2016-08-27 07:23:00,51.6,14.0,30.12,SW,225,0.0,1.6,22,0.00,,,0.00,meteobridge,2016-08-27 13:23:00,
2016-08-27 07:28:00,52.2,14.4,30.12,SW,225,0.0,0.7,22,0.00,,,0.00,meteobridge,2016-08-27 13:28:00,